createdAt,value
2018-12-22T00:01:00.448Z,6.03
2018-12-22T00:03:33.545Z,6.70
2018-12-22T00:06:14.262Z,6.03
2018-12-22T00:08:46.498Z,6.27
2018-12-22T00:11:24.226Z,5.93
2018-12-22T00:14:03.521Z,6.10
2018-12-22T00:16:37.474Z,6.13
2018-12-22T00:19:08.657Z,6.67
2018-12-22T00:21:49.311Z,6.33
2018-12-22T00:24:21.267Z,6.43
2018-12-22T00:26:59.333Z,6.37
2018-12-22T00:29:31.699Z,6.30
2018-12-22T00:35:03.794Z,7.33
2018-12-22T00:37:34.854Z,6.80
2018-12-22T00:40:06.779Z,6.87
2018-12-22T00:42:38.961Z,6.87
2018-12-22T00:45:16.760Z,7.30
2018-12-22T00:47:48.131Z,6.77
2018-12-22T00:50:26.845Z,6.67
2018-12-22T00:53:04.851Z,6.30
2018-12-22T00:55:43.004Z,6.67
2018-12-22T00:58:16.920Z,6.80
2018-12-22T01:00:55.761Z,6.57
2018-12-22T01:03:30.606Z,6.20
2018-12-22T01:06:02.200Z,6.07
2018-12-22T01:08:32.218Z,6.57
2018-12-22T01:11:10.068Z,6.67
2018-12-22T01:13:45.274Z,6.10
2018-12-22T01:16:25.930Z,6.83
2018-12-22T01:19:01.071Z,6.17
2018-12-22T01:21:35.094Z,7.43
2018-12-22T01:24:05.554Z,7.03
2018-12-22T01:26:36.616Z,6.03
2018-12-22T01:29:07.838Z,6.60
2018-12-22T01:31:38.956Z,6.00
2018-12-22T01:34:13.676Z,6.57
2018-12-22T01:36:52.783Z,6.57
2018-12-22T01:39:23.794Z,6.27
2018-12-22T01:42:01.702Z,6.53
2018-12-22T01:44:39.748Z,5.50
2018-12-22T01:47:13.923Z,6.50
2018-12-22T01:49:52.794Z,5.70
2018-12-22T01:52:24.062Z,6.23
2018-12-22T01:54:55.244Z,6.67
2018-12-22T01:57:32.971Z,5.53
2018-12-22T02:00:12.920Z,4.83
2018-12-22T02:02:44.446Z,5.70
2018-12-22T02:05:23.044Z,6.17
2018-12-22T02:07:54.307Z,6.43
2018-12-22T02:10:33.075Z,5.90
2018-12-22T02:13:13.138Z,6.30
2018-12-22T02:15:45.449Z,6.40
2018-12-22T02:18:19.515Z,5.20
2018-12-22T02:20:50.479Z,5.87
2018-12-22T02:23:32.246Z,6.10
2018-12-22T02:26:12.594Z,5.90
2018-12-22T02:28:46.157Z,5.67
2018-12-22T02:31:25.037Z,6.13
2018-12-22T02:34:04.171Z,6.83
2018-12-22T02:36:42.990Z,6.27
2018-12-22T02:39:15.423Z,7.37
2018-12-22T02:41:55.328Z,6.27
2018-12-22T02:44:34.172Z,6.23
2018-12-22T02:47:13.496Z,6.03
2018-12-22T02:49:52.500Z,6.37
2018-12-22T02:52:32.538Z,5.70
2018-12-22T02:55:07.790Z,5.67
2018-12-22T02:57:40.191Z,7.70
2018-12-22T03:00:11.315Z,5.47
2018-12-22T03:02:42.247Z,6.67
2018-12-22T03:08:10.772Z,7.67
2018-12-22T03:10:44.791Z,7.57
2018-12-22T03:13:23.786Z,7.30
2018-12-22T03:16:11.925Z,6.73
2018-12-22T03:18:46.868Z,7.60
2018-12-22T03:24:17.960Z,7.67
2018-12-22T03:26:50.156Z,8.07
2018-12-22T03:29:22.198Z,7.60
2018-12-22T03:32:00.163Z,7.97
2018-12-22T03:34:40.103Z,7.50
2018-12-22T03:37:19.205Z,6.47
2018-12-22T03:40:04.622Z,5.93
2018-12-22T03:42:43.954Z,6.57
2018-12-22T03:45:23.922Z,6.57
2018-12-22T03:48:03.971Z,5.83
2018-12-22T03:50:45.817Z,6.50
2018-12-22T03:56:14.384Z,7.20
2018-12-22T03:58:50.330Z,6.60
2018-12-22T04:01:26.267Z,6.53
2018-12-22T04:04:06.232Z,6.87
2018-12-22T04:06:52.007Z,6.40
2018-12-22T04:09:28.489Z,5.40
2018-12-22T04:12:07.610Z,4.90
2018-12-22T04:14:47.361Z,4.80
2018-12-22T04:17:26.297Z,3.97
2018-12-22T04:20:06.965Z,4.87
2018-12-22T04:22:38.535Z,3.23
2018-12-22T04:25:10.910Z,3.53
2018-12-22T04:27:42.864Z,2.93
2018-12-22T04:30:22.778Z,3.30
2018-12-22T04:33:01.923Z,3.40
2018-12-22T04:35:40.068Z,2.80
2018-12-22T04:38:12.326Z,2.97
2018-12-22T04:40:52.230Z,2.90
2018-12-22T04:49:10.470Z,3.37
2018-12-22T04:51:49.481Z,2.67
2018-12-22T04:54:29.514Z,2.50
2018-12-22T04:57:07.444Z,2.33
2018-12-22T04:59:43.197Z,2.40
2018-12-22T05:02:16.640Z,2.47
2018-12-22T05:04:56.483Z,2.80
2018-12-22T05:07:34.406Z,2.90
2018-12-22T05:10:12.415Z,2.47
2018-12-22T05:12:43.642Z,2.57
2018-12-22T05:15:21.501Z,2.93
2018-12-22T05:17:52.623Z,3.20
2018-12-22T05:20:23.778Z,2.93
2018-12-22T05:23:01.710Z,3.33
2018-12-22T05:25:39.771Z,3.37
2018-12-22T05:28:11.046Z,2.80
2018-12-22T05:30:48.906Z,3.03
2018-12-22T05:33:26.816Z,3.20
2018-12-22T05:36:04.744Z,3.13
2018-12-22T05:38:36.113Z,3.10
2018-12-22T05:41:15.097Z,3.07
2018-12-22T05:43:49.422Z,3.17
2018-12-22T05:46:27.374Z,3.20
2018-12-22T05:49:01.398Z,3.93
2018-12-22T05:51:39.443Z,3.20
2018-12-22T05:54:17.375Z,3.60
2018-12-22T05:56:55.376Z,4.40
2018-12-22T06:02:19.835Z,3.70
2018-12-22T06:05:00.392Z,3.67
2018-12-22T06:07:38.373Z,3.50
2018-12-22T06:10:12.530Z,3.47
2018-12-22T06:12:51.352Z,3.73
2018-12-22T06:15:29.256Z,3.30
2018-12-22T06:18:00.517Z,2.90
2018-12-22T06:20:32.048Z,2.90
2018-12-22T06:23:01.984Z,2.67
2018-12-22T06:25:33.123Z,2.43
2018-12-22T06:28:06.350Z,2.00
2018-12-22T06:30:44.161Z,1.83
2018-12-22T06:33:22.198Z,2.23
2018-12-22T06:36:00.311Z,1.50
2018-12-22T06:38:33.542Z,1.57
2018-12-22T06:41:12.200Z,1.40
2018-12-22T06:43:44.580Z,1.60
2018-12-22T06:46:14.539Z,1.20
2018-12-22T06:48:46.569Z,1.30
2018-12-22T06:51:24.398Z,1.17
2018-12-22T06:54:00.616Z,1.20
2018-12-22T06:56:35.492Z,0.90
2018-12-22T06:59:14.387Z,0.93
2018-12-22T07:01:52.484Z,1.10
2018-12-22T07:04:30.532Z,0.93
2018-12-22T07:07:08.368Z,0.80
2018-12-22T07:09:40.611Z,0.93
2018-12-22T07:12:11.667Z,0.83
2018-12-22T07:14:50.391Z,0.70
2018-12-22T07:17:28.253Z,0.80
2018-12-22T07:20:10.086Z,0.63
2018-12-22T07:22:39.792Z,0.70
2018-12-22T07:25:18.379Z,0.57
2018-12-22T07:27:49.634Z,0.73
2018-12-22T07:30:28.441Z,0.70
2018-12-22T07:33:06.250Z,0.67
2018-12-22T07:35:45.365Z,1.07
2018-12-22T07:38:14.910Z,0.60
2018-12-22T07:40:53.682Z,0.70
2018-12-22T07:43:31.714Z,0.60
2018-12-22T07:46:10.797Z,0.77
2018-12-22T07:48:42.473Z,0.80
2018-12-22T07:51:20.792Z,0.93
2018-12-22T07:53:58.838Z,1.00
2018-12-22T07:56:32.872Z,1.20
2018-12-22T07:59:04.229Z,0.90
2018-12-22T08:01:42.863Z,1.30
2018-12-22T08:04:16.895Z,1.10
2018-12-22T08:06:50.824Z,1.13
2018-12-22T08:09:21.973Z,1.20
2018-12-22T08:11:59.797Z,1.27
2018-12-22T08:14:37.727Z,1.40
2018-12-22T08:17:11.697Z,1.40
2018-12-22T08:19:47.566Z,1.80
2018-12-22T08:22:25.574Z,1.73
2018-12-22T08:24:59.554Z,1.73
2018-12-22T08:27:38.483Z,1.67
2018-12-22T08:30:16.338Z,2.03
2018-12-22T08:32:50.349Z,2.50
2018-12-22T08:35:28.370Z,2.47
2018-12-22T08:38:00.804Z,2.20
2018-12-22T08:40:32.663Z,2.57
2018-12-22T08:43:10.531Z,2.50
2018-12-22T08:45:41.930Z,2.53
2018-12-22T08:48:13.897Z,2.23
2018-12-22T08:50:52.626Z,2.17
2018-12-22T08:53:26.907Z,1.90
2018-12-22T08:56:08.236Z,1.70
2018-12-22T08:58:39.715Z,1.70
2018-12-22T09:01:18.491Z,2.00
2018-12-22T09:03:52.578Z,1.60
2018-12-22T09:06:30.703Z,2.00
2018-12-22T09:11:54.944Z,1.30
2018-12-22T09:17:19.300Z,1.57
2018-12-22T09:19:59.807Z,1.70
2018-12-22T09:22:39.942Z,1.20
2018-12-22T09:25:18.055Z,1.77
2018-12-22T09:27:52.997Z,1.70
2018-12-22T09:30:30.818Z,2.17
2018-12-22T09:33:06.828Z,1.13
2018-12-22T09:35:44.670Z,1.33
2018-12-22T09:38:16.863Z,1.30
2018-12-22T09:40:54.581Z,1.50
2018-12-22T09:43:32.610Z,1.40
2018-12-22T09:46:07.789Z,1.60
2018-12-22T09:48:38.928Z,1.40
2018-12-22T09:51:10.151Z,1.50
2018-12-22T09:53:44.079Z,1.40
2018-12-22T09:56:22.703Z,1.60
2018-12-22T09:58:55.173Z,1.40
2018-12-22T10:01:33.626Z,1.83
2018-12-22T10:04:12.593Z,1.30
2018-12-22T10:06:43.865Z,1.67
2018-12-22T10:09:14.909Z,1.53
2018-12-22T10:11:45.971Z,1.27
2018-12-22T10:14:24.580Z,2.03
2018-12-22T10:17:02.847Z,1.60
2018-12-22T10:19:37.013Z,1.90
2018-12-22T10:22:11.057Z,2.13
2018-12-22T10:24:48.930Z,1.67
2018-12-22T10:27:26.938Z,1.50
2018-12-22T10:30:06.469Z,1.80
2018-12-22T10:32:45.085Z,1.90
2018-12-22T10:35:25.560Z,2.10
2018-12-22T10:37:57.498Z,1.60
2018-12-22T10:40:36.601Z,1.83
2018-12-22T10:43:14.501Z,1.60
2018-12-22T10:45:52.221Z,1.87
2018-12-22T10:48:23.385Z,1.67
2018-12-22T10:51:01.210Z,1.60
2018-12-22T10:53:39.207Z,2.00
2018-12-22T10:56:17.425Z,1.90
2018-12-22T10:58:48.782Z,2.30
2018-12-22T11:01:26.340Z,2.00
2018-12-22T11:04:02.844Z,2.20
2018-12-22T11:06:40.980Z,2.10
2018-12-22T11:09:12.503Z,2.27
2018-12-22T11:11:50.898Z,2.13
2018-12-22T11:14:28.934Z,2.57
2018-12-22T11:17:08.213Z,2.50
2018-12-22T11:19:39.475Z,2.70
2018-12-22T11:22:17.210Z,2.13
2018-12-22T11:24:48.424Z,2.83
2018-12-22T11:27:26.173Z,2.80
2018-12-22T11:30:06.365Z,2.87
2018-12-22T11:32:45.667Z,2.80
2018-12-22T11:35:23.785Z,2.40
2018-12-22T11:37:58.711Z,1.87
2018-12-22T11:40:36.496Z,2.10
2018-12-22T11:43:15.440Z,2.00
2018-12-22T11:45:53.466Z,2.10
2018-12-22T11:48:24.603Z,1.83
2018-12-22T11:50:58.552Z,2.33
2018-12-22T11:53:36.479Z,2.20
2018-12-22T11:56:09.900Z,2.73
2018-12-22T11:58:41.866Z,3.20
2018-12-22T12:01:27.546Z,2.53
2018-12-22T12:04:01.955Z,2.70
2018-12-22T12:06:39.955Z,2.70
2018-12-22T12:09:12.343Z,3.00
2018-12-22T12:11:50.041Z,3.30
2018-12-22T12:14:28.240Z,3.70
2018-12-22T12:17:13.885Z,3.20
2018-12-22T12:19:43.522Z,3.80
2018-12-22T12:22:18.662Z,3.73
2018-12-22T12:24:56.572Z,3.70
2018-12-22T12:27:35.743Z,3.70
2018-12-22T12:30:08.975Z,4.27
2018-12-22T12:32:49.675Z,3.37
2018-12-22T12:35:28.066Z,2.80
2018-12-22T12:38:03.207Z,2.87
2018-12-22T12:40:41.143Z,2.80
2018-12-22T12:43:19.245Z,3.00
2018-12-22T12:45:59.315Z,3.03
2018-12-22T12:48:30.709Z,3.30
2018-12-22T12:51:11.178Z,3.03
2018-12-22T12:53:42.943Z,3.47
2018-12-22T12:56:21.596Z,3.53
2018-12-22T12:58:55.758Z,3.20
2018-12-22T13:01:27.976Z,3.20
2018-12-22T13:03:57.961Z,3.20
2018-12-22T13:09:22.008Z,3.07
2018-12-22T13:12:00.783Z,2.50
2018-12-22T13:14:34.920Z,1.87
2018-12-22T13:17:10.900Z,2.10
2018-12-22T13:19:42.819Z,1.67
2018-12-22T13:22:16.755Z,1.77
2018-12-22T13:24:55.404Z,1.60
2018-12-22T13:27:33.526Z,1.30
2018-12-22T13:30:10.159Z,1.27
2018-12-22T13:32:40.908Z,1.47
2018-12-22T13:35:11.221Z,1.60
2018-12-22T13:37:40.847Z,1.70
2018-12-22T13:40:19.611Z,1.80
2018-12-22T13:42:53.946Z,1.70
2018-12-22T13:50:26.210Z,2.60
2018-12-22T13:52:56.160Z,2.90
2018-12-22T13:55:34.014Z,2.87
2018-12-22T13:58:05.234Z,2.47
2018-12-22T14:00:45.846Z,2.37
2018-12-22T14:03:24.199Z,1.63
2018-12-22T14:06:02.003Z,1.50
2018-12-22T14:08:36.097Z,1.20
2018-12-22T14:11:15.928Z,1.00
2018-12-22T14:13:50.124Z,1.30
2018-12-22T14:16:30.462Z,1.10
2018-12-22T14:19:01.605Z,1.53
2018-12-22T14:21:41.607Z,1.50
2018-12-22T14:24:19.897Z,1.53
2018-12-22T14:26:58.534Z,1.33
2018-12-22T14:29:29.894Z,1.30
2018-12-22T14:32:03.883Z,1.80
2018-12-22T14:34:38.162Z,1.73
2018-12-22T14:37:09.410Z,2.13
2018-12-22T14:39:41.245Z,1.90
2018-12-22T14:45:13.274Z,1.90
2018-12-22T14:47:45.510Z,1.97
2018-12-22T14:50:23.358Z,1.80
2018-12-22T14:52:58.639Z,1.70
2018-12-22T14:55:29.899Z,1.80
2018-12-22T14:58:02.112Z,1.73
2018-12-22T15:00:41.983Z,1.77
2018-12-22T15:03:19.841Z,2.10
2018-12-22T15:05:51.220Z,2.07
2018-12-22T15:08:23.187Z,1.90
2018-12-22T15:10:55.158Z,2.10
2018-12-22T15:13:33.794Z,1.97
2018-12-22T15:16:07.813Z,2.07
2018-12-22T15:18:38.962Z,2.23
2018-12-22T15:21:16.699Z,2.43
2018-12-22T15:23:47.858Z,2.60
2018-12-22T15:26:21.667Z,2.30
2018-12-22T15:28:55.576Z,2.60
2018-12-22T15:31:27.976Z,2.73
2018-12-22T15:33:59.840Z,2.47
2018-12-22T15:36:37.686Z,2.63
2018-12-22T15:39:09.072Z,2.70
2018-12-22T15:41:47.717Z,2.33
2018-12-22T15:44:26.703Z,3.07
2018-12-22T15:47:00.741Z,2.53
2018-12-22T15:49:34.649Z,2.77
2018-12-22T15:52:08.613Z,2.97
2018-12-22T15:54:46.364Z,2.57
2018-12-22T15:57:17.719Z,2.87
2018-12-22T15:59:48.882Z,3.03
2018-12-22T16:02:26.619Z,2.67
2018-12-22T16:05:06.394Z,2.93
2018-12-22T16:07:41.360Z,2.80
2018-12-22T16:10:19.791Z,2.77
2018-12-22T16:12:58.754Z,2.30
2018-12-22T16:15:36.903Z,2.80
2018-12-22T16:18:09.473Z,2.67
2018-12-22T16:20:40.517Z,2.63
2018-12-22T16:23:12.602Z,2.63
2018-12-22T16:25:51.281Z,2.90
2018-12-22T16:28:25.390Z,3.13
2018-12-22T16:31:03.234Z,2.67
2018-12-22T16:33:37.390Z,2.93
2018-12-22T16:36:11.730Z,2.50
2018-12-22T16:38:45.571Z,3.03
2018-12-22T16:41:17.828Z,3.00
2018-12-22T16:43:56.338Z,3.00
2018-12-22T16:46:27.788Z,3.30
2018-12-22T16:48:59.745Z,3.20
2018-12-22T16:51:32.054Z,3.77
2018-12-22T16:54:13.419Z,3.07
2018-12-22T16:56:54.082Z,5.23
2018-12-22T16:59:25.351Z,2.73
2018-12-22T17:02:04.978Z,2.80
2018-12-22T17:04:43.050Z,4.40
2018-12-22T17:07:22.178Z,3.10
2018-12-22T17:09:53.611Z,2.93
2018-12-22T17:12:33.284Z,3.50
2018-12-22T17:15:11.101Z,3.90
2018-12-22T17:17:42.316Z,3.60
2018-12-22T17:20:21.139Z,3.07
2018-12-22T17:26:14.188Z,3.70
2018-12-22T17:28:43.854Z,4.80
2018-12-22T17:31:14.910Z,3.90
2018-12-22T17:33:52.790Z,5.43
2018-12-22T17:36:27.029Z,3.33
2018-12-22T17:38:58.100Z,5.10
2018-12-22T17:44:30.535Z,4.20
2018-12-22T17:47:08.457Z,3.50
2018-12-22T17:49:40.527Z,4.27
2018-12-22T17:52:19.109Z,4.23
2018-12-22T17:54:58.154Z,3.63
2018-12-22T17:57:39.413Z,4.30
2018-12-22T18:00:26.903Z,4.07
2018-12-22T18:03:06.115Z,3.87
2018-12-22T18:05:46.541Z,4.13
2018-12-22T18:08:18.126Z,4.63
2018-12-22T18:10:55.848Z,3.70
2018-12-22T18:13:33.752Z,3.77
2018-12-22T18:16:11.985Z,4.03
2018-12-22T18:18:44.112Z,4.80
2018-12-22T18:21:22.071Z,4.63
2018-12-22T18:24:09.370Z,4.70
2018-12-22T18:26:47.290Z,5.37
2018-12-22T18:29:21.320Z,4.10
2018-12-22T18:31:53.255Z,3.60
2018-12-22T18:34:24.321Z,4.13
2018-12-22T18:36:57.328Z,4.17
2018-12-22T18:39:28.563Z,8.33
2018-12-22T18:42:09.131Z,4.67
2018-12-22T18:44:41.794Z,5.87
2018-12-22T18:47:12.785Z,4.57
2018-12-22T18:49:45.828Z,5.37
2018-12-22T18:52:24.551Z,3.43
2018-12-22T18:55:04.298Z,3.97
2018-12-22T18:57:42.734Z,4.20
2018-12-22T19:00:21.508Z,4.27
2018-12-22T19:02:59.818Z,7.03
2018-12-22T19:05:38.010Z,4.10
2018-12-22T19:08:12.126Z,4.33
2018-12-22T19:10:46.018Z,5.03
2018-12-22T19:13:23.739Z,3.90
2018-12-22T19:16:01.458Z,3.33
2018-12-22T19:18:32.734Z,3.80
2018-12-22T19:21:03.882Z,3.43
2018-12-22T19:23:49.348Z,4.30
2018-12-22T19:26:21.215Z,3.80
2018-12-22T19:28:52.275Z,4.07
2018-12-22T19:31:30.797Z,3.77
2018-12-22T19:34:09.787Z,4.17
2018-12-22T19:36:43.879Z,4.37
2018-12-22T19:39:14.792Z,4.70
2018-12-22T19:41:46.053Z,3.93
2018-12-22T19:44:20.398Z,3.43
2018-12-22T19:46:58.326Z,4.90
2018-12-22T19:49:32.370Z,8.60
2018-12-22T19:52:11.310Z,3.40
2018-12-22T19:54:51.751Z,4.77
2018-12-22T19:57:30.218Z,3.20
2018-12-22T20:00:07.990Z,7.37
2018-12-22T20:02:49.704Z,7.30
2018-12-22T20:05:29.965Z,5.73
2018-12-22T20:08:02.052Z,9.57
2018-12-22T20:10:33.198Z,4.07
2018-12-22T20:13:03.181Z,6.40
2018-12-22T20:15:37.144Z,3.43
2018-12-22T20:18:10.096Z,3.57
2018-12-22T20:20:47.881Z,3.60
2018-12-22T20:23:19.145Z,4.07
2018-12-22T20:25:51.011Z,3.33
2018-12-22T20:28:25.634Z,3.93
2018-12-22T20:31:03.930Z,4.10
2018-12-22T20:33:36.237Z,3.50
2018-12-22T20:36:15.328Z,4.57
2018-12-22T20:38:49.003Z,4.77
2018-12-22T20:41:18.889Z,4.67
2018-12-22T20:43:57.498Z,3.53
2018-12-22T20:46:37.933Z,4.37
2018-12-22T20:49:09.762Z,4.07
2018-12-22T20:51:49.549Z,5.23
2018-12-22T20:54:27.533Z,4.17
2018-12-22T20:56:58.678Z,4.43
2018-12-22T20:59:29.949Z,4.10
2018-12-22T21:02:08.553Z,4.30
2018-12-22T21:04:46.544Z,4.83
2018-12-22T21:07:20.676Z,5.43
2018-12-22T21:09:53.140Z,4.83
2018-12-22T21:12:31.203Z,4.97
2018-12-22T21:17:55.661Z,4.67
2018-12-22T21:23:18.470Z,4.03
2018-12-22T21:25:58.053Z,5.23
2018-12-22T21:28:32.096Z,5.37
2018-12-22T21:31:03.037Z,5.00
2018-12-22T21:33:32.786Z,5.57
2018-12-22T21:36:11.842Z,8.50
2018-12-22T21:38:43.093Z,5.50
2018-12-22T21:41:14.096Z,6.47
2018-12-22T21:43:51.834Z,6.70
2018-12-22T21:46:31.929Z,7.70
2018-12-22T21:49:03.183Z,4.80
2018-12-22T21:51:43.809Z,4.97
2018-12-22T21:54:15.142Z,4.00
2018-12-22T21:56:49.082Z,4.87
2018-12-22T21:59:20.252Z,5.40
2018-12-22T22:01:58.051Z,7.70
2018-12-22T22:04:37.103Z,5.60
2018-12-22T22:07:18.753Z,5.63
2018-12-22T22:09:50.282Z,5.17
2018-12-22T22:12:24.125Z,4.87
2018-12-22T22:15:03.775Z,5.60
2018-12-22T22:17:41.747Z,6.33
2018-12-22T22:20:19.694Z,5.33
2018-12-22T22:22:57.488Z,5.53
2018-12-22T22:25:35.503Z,5.60
2018-12-22T22:28:06.977Z,6.13
2018-12-22T22:30:39.081Z,5.77
2018-12-22T22:33:20.227Z,6.33
2018-12-22T22:35:58.728Z,6.33
2018-12-22T22:38:30.723Z,5.93
2018-12-22T22:41:02.593Z,5.60
2018-12-22T22:43:32.431Z,5.97
2018-12-22T22:46:10.175Z,5.70
2018-12-22T22:48:44.114Z,5.90
2018-12-22T22:51:18.126Z,6.17
2018-12-22T22:53:56.827Z,5.53
2018-12-22T22:56:28.873Z,5.77
2018-12-22T22:59:00.557Z,5.53
2018-12-22T23:01:38.743Z,5.60
2018-12-22T23:04:10.128Z,5.17
2018-12-22T23:06:48.072Z,8.70
2018-12-22T23:09:19.135Z,6.27
2018-12-22T23:11:51.136Z,5.37
2018-12-22T23:14:29.797Z,5.50
2018-12-22T23:17:07.852Z,6.53
2018-12-22T23:19:39.938Z,5.60
2018-12-22T23:22:18.608Z,6.00
2018-12-22T23:24:51.330Z,5.80
2018-12-22T23:27:29.228Z,5.10
2018-12-22T23:30:00.610Z,6.10
2018-12-22T23:32:38.432Z,6.33
2018-12-22T23:35:16.242Z,5.83
2018-12-22T23:37:48.670Z,5.47
2018-12-22T23:40:19.811Z,5.00
2018-12-22T23:42:59.471Z,6.20
2018-12-22T23:45:34.266Z,5.87
2018-12-22T23:48:09.046Z,6.00
2018-12-22T23:50:47.901Z,5.90
2018-12-22T23:53:17.810Z,7.30
2018-12-22T23:55:48.915Z,5.73
2018-12-22T23:58:20.718Z,6.77
